createdAt,value
2022-10-06T00:01:40.708Z,99.90
2022-10-06T00:04:11.645Z,99.90
2022-10-06T00:06:42.870Z,99.90
2022-10-06T00:09:14.796Z,99.90
2022-10-06T00:11:42.985Z,99.90
2022-10-06T00:14:11.155Z,99.90
2022-10-06T00:16:39.128Z,99.90
2022-10-06T00:19:07.758Z,99.90
2022-10-06T00:21:36.390Z,99.90
2022-10-06T00:24:07.355Z,99.90
2022-10-06T00:26:35.359Z,99.90
2022-10-06T00:29:04.045Z,99.90
2022-10-06T00:31:34.870Z,99.90
2022-10-06T00:34:03.119Z,99.90
2022-10-06T00:36:31.986Z,99.90
2022-10-06T00:39:02.989Z,99.90
2022-10-06T00:41:34.233Z,99.90
2022-10-06T00:44:02.959Z,99.90
2022-10-06T00:46:37.216Z,99.90
2022-10-06T00:49:12.333Z,99.90
2022-10-06T00:51:44.716Z,99.90
2022-10-06T00:54:13.207Z,99.90
2022-10-06T00:56:41.765Z,99.90
2022-10-06T00:59:14.302Z,99.90
2022-10-06T01:01:44.901Z,99.90
2022-10-06T01:04:18.189Z,99.90
2022-10-06T01:06:51.328Z,99.90
2022-10-06T01:09:20.983Z,99.90
2022-10-06T01:11:51.050Z,99.90
2022-10-06T01:14:20.116Z,99.90
2022-10-06T01:16:52.321Z,99.90
2022-10-06T01:19:37.675Z,99.90
2022-10-06T01:22:09.064Z,99.90
2022-10-06T01:24:37.488Z,99.90
2022-10-06T01:27:07.164Z,99.90
2022-10-06T01:29:35.980Z,99.90
2022-10-06T01:32:05.072Z,99.90
2022-10-06T01:34:33.057Z,99.90
2022-10-06T01:37:04.139Z,99.90
2022-10-06T01:39:32.874Z,99.90
2022-10-06T01:42:01.232Z,99.90
2022-10-06T01:44:32.194Z,99.90
2022-10-06T01:47:00.274Z,99.90
2022-10-06T01:49:28.769Z,99.90
2022-10-06T01:51:56.851Z,99.90
2022-10-06T01:54:25.046Z,99.90
2022-10-06T01:56:56.462Z,99.90
2022-10-06T01:59:25.108Z,99.90
2022-10-06T02:01:56.188Z,99.90
2022-10-06T02:04:24.894Z,99.90
2022-10-06T02:06:55.718Z,99.90
2022-10-06T02:09:24.876Z,99.90
2022-10-06T02:11:57.193Z,99.90
2022-10-06T02:14:25.400Z,99.90
2022-10-06T02:16:54.859Z,99.90
2022-10-06T02:19:23.111Z,99.90
2022-10-06T02:21:53.902Z,99.90
2022-10-06T02:24:22.027Z,99.90
2022-10-06T02:26:50.435Z,99.90
2022-10-06T02:29:19.001Z,99.90
2022-10-06T02:31:47.612Z,99.90
2022-10-06T02:34:16.077Z,99.90
2022-10-06T02:36:44.271Z,99.90
2022-10-06T02:39:12.358Z,99.90
2022-10-06T02:41:41.248Z,99.90
2022-10-06T02:44:09.282Z,99.90
2022-10-06T02:46:39.124Z,99.90
2022-10-06T02:49:07.454Z,99.90
2022-10-06T02:51:37.101Z,99.90
2022-10-06T02:54:05.886Z,99.90
2022-10-06T02:56:41.567Z,99.90
2022-10-06T02:59:09.523Z,99.90
2022-10-06T03:01:39.182Z,99.90
2022-10-06T03:04:13.107Z,99.90
2022-10-06T03:06:42.879Z,99.90
2022-10-06T03:09:19.250Z,99.90
2022-10-06T03:11:47.533Z,99.90
2022-10-06T03:14:26.394Z,99.90
2022-10-06T03:16:59.874Z,99.90
2022-10-06T03:19:30.510Z,99.90
2022-10-06T03:22:01.984Z,99.90
2022-10-06T03:24:44.914Z,99.90
2022-10-06T03:27:13.067Z,99.90
2022-10-06T03:29:42.119Z,99.90
2022-10-06T03:32:11.137Z,99.90
2022-10-06T03:34:40.106Z,99.90
2022-10-06T03:37:11.783Z,99.90
2022-10-06T03:39:40.191Z,99.90
2022-10-06T03:42:11.155Z,99.90
2022-10-06T03:44:39.435Z,99.90
2022-10-06T03:47:16.817Z,99.90
2022-10-06T03:49:45.424Z,99.90
2022-10-06T03:52:16.085Z,99.90
2022-10-06T03:54:45.602Z,99.90
2022-10-06T03:57:13.984Z,99.90
2022-10-06T03:59:42.409Z,99.90
2022-10-06T04:02:11.608Z,99.90
2022-10-06T04:04:43.157Z,99.90
2022-10-06T04:07:14.047Z,99.90
2022-10-06T04:09:42.118Z,99.90
2022-10-06T04:12:12.964Z,99.90
2022-10-06T04:14:43.044Z,99.90
2022-10-06T04:17:11.978Z,99.90
2022-10-06T04:19:41.961Z,99.90
2022-10-06T04:22:10.019Z,99.90
2022-10-06T04:24:38.379Z,99.90
2022-10-06T04:27:25.140Z,99.90
2022-10-06T04:30:01.878Z,99.90
2022-10-06T04:32:31.391Z,99.90
2022-10-06T04:34:59.537Z,99.90
2022-10-06T04:37:29.369Z,99.90
2022-10-06T04:39:58.213Z,99.90
2022-10-06T04:42:34.745Z,99.90
2022-10-06T04:45:05.276Z,99.90
2022-10-06T04:47:34.058Z,99.90
2022-10-06T04:50:02.602Z,99.90
2022-10-06T04:52:31.484Z,99.90
2022-10-06T04:54:59.681Z,99.90
2022-10-06T04:57:30.854Z,99.90
2022-10-06T05:00:17.590Z,99.90
2022-10-06T05:02:47.554Z,99.90
2022-10-06T05:05:17.173Z,99.90
2022-10-06T05:07:45.820Z,99.90
2022-10-06T05:10:18.222Z,99.90
2022-10-06T05:12:47.266Z,99.90
2022-10-06T05:15:15.918Z,99.90
2022-10-06T05:17:44.199Z,99.90
2022-10-06T05:20:12.594Z,99.90
2022-10-06T05:22:41.015Z,99.90
2022-10-06T05:25:10.701Z,99.90
2022-10-06T05:27:38.686Z,99.90
2022-10-06T05:30:08.177Z,99.90
2022-10-06T05:32:36.407Z,99.90
2022-10-06T05:35:05.833Z,99.90
2022-10-06T05:37:34.074Z,99.90
2022-10-06T05:40:03.061Z,99.90
2022-10-06T05:42:32.278Z,99.90
2022-10-06T05:45:01.439Z,99.90
2022-10-06T05:47:31.079Z,99.90
2022-10-06T05:49:59.516Z,99.90
2022-10-06T05:52:27.612Z,99.90
2022-10-06T05:54:55.979Z,99.90
2022-10-06T05:57:24.078Z,99.90
2022-10-06T05:59:54.970Z,99.90
2022-10-06T06:02:23.081Z,99.90
2022-10-06T06:04:52.071Z,99.90
2022-10-06T06:07:25.035Z,99.90
2022-10-06T06:09:54.280Z,99.90
2022-10-06T06:12:26.315Z,99.90
2022-10-06T06:15:27.848Z,99.90
2022-10-06T06:18:02.023Z,99.90
2022-10-06T06:20:31.099Z,99.90
2022-10-06T06:22:59.247Z,99.90
2022-10-06T06:25:29.297Z,99.90
2022-10-06T06:27:58.348Z,99.90
2022-10-06T06:30:26.974Z,99.90
2022-10-06T06:33:00.584Z,99.90
2022-10-06T06:35:29.959Z,99.90
2022-10-06T06:37:59.819Z,99.90
2022-10-06T06:40:32.105Z,99.90
2022-10-06T06:43:01.147Z,99.90
2022-10-06T06:45:41.185Z,99.90
2022-10-06T06:48:24.988Z,99.90
2022-10-06T06:50:59.941Z,99.90
2022-10-06T06:53:32.053Z,99.90
2022-10-06T06:56:03.162Z,99.90
2022-10-06T06:58:33.864Z,99.90
2022-10-06T07:01:12.552Z,99.90
2022-10-06T07:03:57.257Z,99.90
2022-10-06T07:06:29.585Z,99.90
2022-10-06T07:09:00.336Z,99.90
2022-10-06T07:11:29.619Z,99.90
2022-10-06T07:14:01.682Z,99.90
2022-10-06T07:16:49.310Z,99.90
2022-10-06T07:19:36.992Z,99.90
2022-10-06T07:22:26.990Z,99.90
2022-10-06T07:25:07.725Z,99.90
2022-10-06T07:27:38.686Z,99.00
2022-10-06T07:30:07.161Z,95.40
2022-10-06T07:32:35.265Z,95.00
2022-10-06T07:35:09.448Z,94.30
2022-10-06T07:37:37.974Z,93.30
2022-10-06T07:40:07.199Z,92.90
2022-10-06T07:42:48.689Z,94.10
2022-10-06T07:45:44.531Z,90.60
2022-10-06T07:48:18.522Z,90.00
2022-10-06T07:50:54.678Z,82.30
2022-10-06T07:53:28.470Z,83.90
2022-10-06T07:56:07.326Z,84.40
2022-10-06T07:58:39.986Z,79.90
2022-10-06T08:01:09.455Z,75.90
2022-10-06T08:03:38.219Z,79.70
2022-10-06T08:06:07.299Z,83.90
2022-10-06T08:08:38.303Z,75.20
2022-10-06T08:11:08.149Z,74.10
2022-10-06T08:13:37.364Z,72.40
2022-10-06T08:16:09.796Z,73.30
2022-10-06T08:18:46.868Z,71.60
2022-10-06T08:21:16.809Z,70.30
2022-10-06T08:23:45.768Z,69.00
2022-10-06T08:26:14.457Z,67.70
2022-10-06T08:28:50.137Z,66.90
2022-10-06T08:31:19.334Z,64.80
2022-10-06T08:33:48.039Z,63.90
2022-10-06T08:36:17.129Z,63.00
2022-10-06T08:38:50.712Z,62.50
2022-10-06T08:41:18.878Z,58.60
2022-10-06T08:44:08.241Z,57.50
2022-10-06T08:46:39.785Z,53.90
2022-10-06T08:49:12.329Z,54.90
2022-10-06T08:51:43.859Z,54.30
2022-10-06T08:54:14.592Z,53.60
2022-10-06T08:56:52.434Z,54.60
2022-10-06T08:59:20.650Z,54.20
2022-10-06T09:01:49.861Z,51.70
2022-10-06T09:04:28.739Z,52.20
2022-10-06T09:07:09.187Z,52.30
2022-10-06T09:09:42.774Z,52.70
2022-10-06T09:12:20.227Z,52.10
2022-10-06T09:14:54.389Z,50.30
2022-10-06T09:17:32.565Z,48.80
2022-10-06T09:20:02.632Z,49.00
2022-10-06T09:22:32.080Z,49.50
2022-10-06T09:25:11.546Z,47.70
2022-10-06T09:27:41.209Z,47.10
2022-10-06T09:30:13.309Z,48.40
2022-10-06T09:32:46.965Z,46.40
2022-10-06T09:35:19.502Z,46.30
2022-10-06T09:37:58.165Z,47.50
2022-10-06T09:40:44.988Z,47.00
2022-10-06T09:43:26.451Z,46.30
2022-10-06T09:45:58.793Z,44.70
2022-10-06T09:48:29.308Z,45.80
2022-10-06T09:51:14.237Z,43.50
2022-10-06T09:53:42.943Z,42.70
2022-10-06T09:56:21.682Z,41.90
2022-10-06T09:58:54.698Z,42.60
2022-10-06T10:01:27.345Z,42.00
2022-10-06T10:04:19.505Z,41.30
2022-10-06T10:06:49.144Z,40.90
2022-10-06T10:09:24.114Z,41.30
2022-10-06T10:12:20.941Z,39.20
2022-10-06T10:14:48.974Z,40.80
2022-10-06T10:17:19.736Z,41.10
2022-10-06T10:19:54.693Z,40.00
2022-10-06T10:22:24.910Z,39.30
2022-10-06T10:25:14.253Z,39.40
2022-10-06T10:27:42.206Z,38.20
2022-10-06T10:30:11.833Z,38.60
2022-10-06T10:32:39.861Z,38.10
2022-10-06T10:35:18.559Z,39.10
2022-10-06T10:37:53.197Z,40.00
2022-10-06T10:40:33.467Z,36.00
2022-10-06T10:43:22.705Z,37.10
2022-10-06T10:45:50.763Z,38.10
2022-10-06T10:48:27.730Z,39.30
2022-10-06T10:51:02.172Z,37.60
2022-10-06T10:53:36.517Z,38.40
2022-10-06T10:56:11.067Z,38.90
2022-10-06T10:58:40.429Z,37.60
2022-10-06T11:01:14.818Z,38.00
2022-10-06T11:03:43.470Z,38.30
2022-10-06T11:06:15.059Z,38.50
2022-10-06T11:09:01.795Z,36.40
2022-10-06T11:11:47.510Z,38.40
2022-10-06T11:14:33.813Z,37.10
2022-10-06T11:17:29.039Z,35.70
2022-10-06T11:19:57.780Z,34.10
2022-10-06T11:22:43.816Z,36.40
2022-10-06T11:25:37.005Z,37.30
2022-10-06T11:28:05.104Z,36.60
2022-10-06T11:30:36.792Z,36.40
2022-10-06T11:33:11.855Z,35.60
2022-10-06T11:35:41.943Z,35.80
2022-10-06T11:38:19.123Z,35.60
2022-10-06T11:40:53.309Z,36.40
2022-10-06T11:43:24.435Z,35.00
2022-10-06T11:46:01.773Z,37.60
2022-10-06T11:48:30.760Z,35.70
2022-10-06T11:51:17.931Z,36.70
2022-10-06T11:53:46.057Z,36.60
2022-10-06T11:56:16.991Z,37.20
2022-10-06T11:58:51.622Z,37.50
2022-10-06T12:01:28.715Z,36.00
2022-10-06T12:04:24.161Z,37.40
2022-10-06T12:06:53.992Z,37.70
2022-10-06T12:09:41.686Z,38.10
2022-10-06T12:12:16.472Z,39.00
2022-10-06T12:16:32.515Z,39.90
2022-10-06T12:17:40.657Z,39.10
2022-10-06T12:20:33.608Z,38.40
2022-10-06T12:23:10.578Z,37.20
2022-10-06T12:25:49.614Z,37.90
2022-10-06T12:28:36.422Z,37.60
2022-10-06T12:31:07.767Z,38.10
2022-10-06T12:33:39.737Z,36.80
2022-10-06T12:36:19.490Z,38.10
2022-10-06T12:39:01.952Z,38.90
2022-10-06T12:41:48.766Z,39.60
2022-10-06T12:44:23.592Z,38.00
2022-10-06T12:46:51.916Z,37.40
2022-10-06T12:49:32.335Z,38.20
2022-10-06T12:52:08.285Z,37.50
2022-10-06T12:54:41.060Z,40.30
2022-10-06T12:57:18.948Z,40.00
2022-10-06T12:59:47.547Z,40.80
2022-10-06T13:02:19.977Z,41.00
2022-10-06T13:05:00.371Z,40.60
2022-10-06T13:07:30.296Z,41.10
2022-10-06T13:10:13.922Z,39.00
2022-10-06T13:12:47.507Z,41.60
2022-10-06T13:15:24.183Z,38.50
2022-10-06T13:17:52.323Z,39.50
2022-10-06T13:20:23.412Z,41.40
2022-10-06T13:23:03.267Z,43.30
2022-10-06T13:25:36.182Z,41.40
2022-10-06T13:28:04.669Z,42.00
2022-10-06T13:30:38.799Z,42.80
2022-10-06T13:33:07.701Z,42.10
2022-10-06T13:35:35.758Z,42.50
2022-10-06T13:38:06.200Z,43.90
2022-10-06T13:40:45.037Z,42.30
2022-10-06T13:43:18.902Z,43.10
2022-10-06T13:45:48.682Z,42.70
2022-10-06T13:48:19.448Z,43.60
2022-10-06T13:50:48.264Z,43.20
2022-10-06T13:53:26.032Z,44.10
2022-10-06T13:55:56.511Z,43.60
2022-10-06T13:58:28.302Z,45.00
2022-10-06T14:00:58.412Z,45.30
2022-10-06T14:06:18.045Z,45.90
2022-10-06T14:08:49.083Z,45.10
2022-10-06T14:11:21.764Z,45.70
2022-10-06T14:13:52.934Z,45.00
2022-10-06T14:16:25.236Z,46.90
2022-10-06T14:21:46.035Z,47.10
2022-10-06T14:24:16.877Z,46.20
2022-10-06T14:26:45.630Z,47.40
2022-10-06T14:29:14.579Z,47.00
2022-10-06T14:31:43.939Z,46.90
2022-10-06T14:34:16.854Z,48.90
2022-10-06T14:36:46.251Z,49.00
2022-10-06T14:39:15.120Z,49.00
2022-10-06T14:41:43.643Z,48.70
2022-10-06T14:44:13.312Z,49.30
2022-10-06T14:46:41.950Z,49.90
2022-10-06T14:49:14.346Z,50.30
2022-10-06T14:51:43.874Z,51.30
2022-10-06T14:54:12.812Z,51.90
2022-10-06T14:56:41.374Z,50.90
2022-10-06T14:59:17.450Z,52.70
2022-10-06T15:01:46.600Z,54.20
2022-10-06T15:04:15.744Z,55.00
2022-10-06T15:07:02.401Z,55.30
2022-10-06T15:09:31.460Z,56.90
2022-10-06T15:12:02.775Z,57.20
2022-10-06T15:14:31.710Z,57.70
2022-10-06T15:17:00.549Z,58.70
2022-10-06T15:19:28.882Z,59.10
2022-10-06T15:22:00.352Z,58.70
2022-10-06T15:24:28.349Z,60.20
2022-10-06T15:27:14.912Z,62.80
2022-10-06T15:29:45.721Z,61.30
2022-10-06T15:32:15.834Z,60.00
2022-10-06T15:34:46.061Z,63.40
2022-10-06T15:37:14.184Z,65.40
2022-10-06T15:39:43.554Z,64.10
2022-10-06T15:42:11.715Z,61.00
2022-10-06T15:44:39.901Z,65.00
2022-10-06T15:47:10.322Z,67.90
2022-10-06T15:49:40.942Z,69.00
2022-10-06T15:52:10.956Z,68.60
2022-10-06T15:54:41.093Z,65.10
2022-10-06T15:57:10.257Z,67.50
2022-10-06T15:59:40.427Z,70.20
2022-10-06T16:02:14.914Z,72.00
2022-10-06T16:04:43.319Z,74.20
2022-10-06T16:07:18.876Z,76.00
2022-10-06T16:09:51.229Z,78.30
2022-10-06T16:12:22.713Z,80.50
2022-10-06T16:14:51.233Z,81.50
2022-10-06T16:17:19.955Z,84.00
2022-10-06T16:19:48.108Z,85.60
2022-10-06T16:22:17.006Z,86.10
2022-10-06T16:24:45.153Z,89.00
2022-10-06T16:27:15.926Z,90.80
2022-10-06T16:29:46.308Z,90.90
2022-10-06T16:32:17.558Z,91.80
2022-10-06T16:34:50.620Z,93.00
2022-10-06T16:37:22.509Z,93.20
2022-10-06T16:39:53.508Z,93.70
2022-10-06T16:42:21.550Z,94.30
2022-10-06T16:44:51.930Z,95.90
2022-10-06T16:47:19.930Z,96.30
2022-10-06T16:49:47.927Z,96.60
2022-10-06T16:52:18.775Z,97.50
2022-10-06T16:54:46.747Z,98.00
2022-10-06T16:57:14.882Z,99.80
2022-10-06T16:59:46.589Z,99.90
2022-10-06T17:02:15.969Z,99.90
2022-10-06T17:04:43.991Z,99.90
2022-10-06T17:07:14.263Z,99.90
2022-10-06T17:10:01.511Z,99.90
2022-10-06T17:12:32.825Z,99.90
2022-10-06T17:15:00.805Z,99.90
2022-10-06T17:17:31.788Z,99.90
2022-10-06T17:20:00.092Z,99.90
2022-10-06T17:22:31.433Z,99.90
2022-10-06T17:25:00.983Z,99.90
2022-10-06T17:27:34.411Z,99.90
2022-10-06T17:30:06.651Z,99.90
2022-10-06T17:32:34.784Z,99.90
2022-10-06T17:35:02.743Z,99.90
2022-10-06T17:37:32.979Z,99.90
2022-10-06T17:40:01.320Z,99.90
2022-10-06T17:42:29.284Z,99.90
2022-10-06T17:44:57.224Z,99.90
2022-10-06T17:47:28.285Z,99.90
2022-10-06T17:49:59.045Z,99.90
2022-10-06T17:52:27.017Z,99.90
2022-10-06T17:54:57.437Z,99.90
2022-10-06T17:57:25.625Z,99.90
2022-10-06T17:59:55.921Z,99.90
2022-10-06T18:02:24.039Z,99.90
2022-10-06T18:04:54.379Z,99.90
2022-10-06T18:07:22.571Z,99.90
2022-10-06T18:10:10.634Z,99.90
2022-10-06T18:12:39.213Z,99.90
2022-10-06T18:15:09.657Z,99.90
2022-10-06T18:17:37.634Z,99.90
2022-10-06T18:20:06.742Z,99.90
2022-10-06T18:22:34.640Z,99.90
2022-10-06T18:25:02.631Z,99.90
2022-10-06T18:27:31.316Z,99.90
2022-10-06T18:29:59.393Z,99.90
2022-10-06T18:34:06.843Z,99.90
2022-10-06T18:38:03.775Z,99.90
2022-10-06T18:40:31.895Z,99.90
2022-10-06T18:43:00.706Z,99.90
2022-10-06T18:45:47.422Z,99.90
2022-10-06T18:48:33.951Z,99.90
2022-10-06T18:51:02.600Z,99.90
2022-10-06T18:53:33.695Z,99.90
2022-10-06T18:56:02.032Z,99.90
2022-10-06T18:58:30.878Z,99.90
2022-10-06T19:01:05.118Z,99.90
2022-10-06T19:03:37.014Z,99.90
2022-10-06T19:06:05.419Z,99.90
2022-10-06T19:08:34.501Z,99.90
2022-10-06T19:11:22.525Z,99.90
2022-10-06T19:13:53.799Z,99.90
2022-10-06T19:16:22.001Z,99.90
2022-10-06T19:18:50.112Z,99.90
2022-10-06T19:21:18.260Z,99.90
2022-10-06T19:23:50.625Z,99.90
2022-10-06T19:26:22.927Z,99.90
2022-10-06T19:28:51.485Z,99.90
2022-10-06T19:31:20.276Z,99.90
2022-10-06T19:33:48.553Z,99.90
2022-10-06T19:36:17.434Z,99.90
2022-10-06T19:38:45.936Z,99.90
2022-10-06T19:41:32.893Z,99.90
2022-10-06T19:44:02.632Z,99.90
2022-10-06T19:46:33.175Z,99.90
2022-10-06T19:49:05.958Z,99.90
2022-10-06T19:51:34.773Z,99.90
2022-10-06T19:54:06.634Z,99.90
2022-10-06T19:56:35.174Z,99.90
2022-10-06T19:59:03.455Z,99.90
2022-10-06T20:01:31.654Z,99.90
2022-10-06T20:03:59.830Z,99.90
2022-10-06T20:06:28.559Z,99.90
2022-10-06T20:08:58.166Z,99.90
2022-10-06T20:11:26.121Z,99.90
2022-10-06T20:13:54.030Z,99.90
2022-10-06T20:16:22.099Z,99.90
2022-10-06T20:18:50.949Z,99.90
2022-10-06T20:21:22.492Z,99.90
2022-10-06T20:23:54.544Z,99.90
2022-10-06T20:26:24.593Z,99.90
2022-10-06T20:28:52.854Z,99.90
2022-10-06T20:31:47.148Z,99.90
2022-10-06T20:34:19.635Z,99.90
2022-10-06T20:36:50.667Z,99.90
2022-10-06T20:39:41.807Z,99.90
2022-10-06T20:42:14.726Z,99.90
2022-10-06T20:44:44.017Z,99.90
2022-10-06T20:47:12.793Z,99.90
2022-10-06T20:49:43.222Z,99.90
2022-10-06T20:52:14.725Z,99.90
2022-10-06T20:54:43.175Z,99.90
2022-10-06T20:57:13.647Z,99.90
2022-10-06T20:59:42.033Z,99.90
2022-10-06T21:02:13.780Z,99.90
2022-10-06T21:04:43.883Z,99.90
2022-10-06T21:07:12.491Z,99.90
2022-10-06T21:09:47.504Z,99.90
2022-10-06T21:12:24.202Z,99.90
2022-10-06T21:14:53.245Z,99.90
2022-10-06T21:17:24.911Z,99.90
2022-10-06T21:19:53.549Z,99.90
2022-10-06T21:22:24.524Z,99.90
2022-10-06T21:24:53.210Z,99.90
2022-10-06T21:27:21.820Z,99.90
2022-10-06T21:29:51.228Z,99.90
2022-10-06T21:32:19.932Z,99.90
2022-10-06T21:34:50.738Z,99.90
2022-10-06T21:37:24.160Z,99.90
2022-10-06T21:39:52.193Z,99.90
2022-10-06T21:42:20.331Z,99.90
2022-10-06T21:44:48.306Z,99.90
2022-10-06T21:47:16.463Z,99.90
2022-10-06T21:49:44.500Z,99.90
2022-10-06T21:52:12.807Z,99.90
2022-10-06T21:54:40.803Z,99.90
2022-10-06T21:57:09.031Z,99.90
2022-10-06T21:59:36.959Z,99.90
2022-10-06T22:02:05.025Z,99.90
2022-10-06T22:04:33.105Z,99.90
2022-10-06T22:07:01.323Z,99.90
2022-10-06T22:09:29.338Z,99.90
2022-10-06T22:11:57.504Z,99.90
2022-10-06T22:14:28.553Z,99.90
2022-10-06T22:16:56.483Z,99.90
2022-10-06T22:19:24.553Z,99.90
2022-10-06T22:21:52.683Z,99.90
2022-10-06T22:24:21.496Z,99.90
2022-10-06T22:26:50.140Z,99.90
2022-10-06T22:29:18.908Z,99.90
2022-10-06T22:31:48.185Z,99.90
2022-10-06T22:34:20.018Z,99.90
2022-10-06T22:36:48.136Z,99.90
2022-10-06T22:39:16.168Z,99.90
2022-10-06T22:41:46.625Z,99.90
2022-10-06T22:44:14.777Z,99.90
2022-10-06T22:49:10.637Z,99.90
2022-10-06T22:51:38.859Z,99.90
2022-10-06T22:54:14.890Z,99.90
2022-10-06T22:56:42.868Z,99.90
2022-10-06T22:59:10.961Z,99.90
2022-10-06T23:01:38.957Z,99.90
2022-10-06T23:04:07.095Z,99.90
2022-10-06T23:06:38.052Z,99.90
2022-10-06T23:09:06.133Z,99.90
2022-10-06T23:11:34.237Z,99.90
2022-10-06T23:14:02.200Z,99.90
2022-10-06T23:16:30.350Z,99.90
2022-10-06T23:18:58.556Z,99.90
2022-10-06T23:21:27.953Z,99.90
2022-10-06T23:23:59.062Z,99.90
2022-10-06T23:26:29.367Z,99.90
2022-10-06T23:28:59.429Z,99.90
2022-10-06T23:31:28.581Z,99.90
2022-10-06T23:33:59.053Z,99.90
2022-10-06T23:36:27.130Z,99.90
2022-10-06T23:38:55.165Z,99.90
2022-10-06T23:41:23.510Z,99.90
2022-10-06T23:43:54.639Z,99.90
2022-10-06T23:46:24.872Z,99.90
2022-10-06T23:48:52.876Z,99.90
2022-10-06T23:51:23.695Z,99.90
2022-10-06T23:53:53.981Z,99.90
2022-10-06T23:56:24.404Z,99.90
2022-10-06T23:58:54.676Z,99.90
